Time;durP1;ratioP1;P1;durP2;ratioP2;P2;SDS_P1;SDS_P2;PMS_P1;PMS_P2;Temp;Humidity;BMP_temperature;BMP_pressure;BME280_temperature;BME280_humidity;BME280_pressure;Samples;Min_cycle;Max_cycle;Signal;HPM_P1;HPM_P2
2021/03/19 00:01:27;;;;;;;28.80;17.03;;;;;;;;;;4954526;28;20598;-85
2021/03/19 00:03:53;;;;;;;26.80;15.90;;;;;;;;;;4954966;29;20531;-86
2021/03/19 00:06:19;;;;;;;25.20;15.70;;;;;;;;;;4954451;29;20530;-86
2021/03/19 00:08:44;;;;;;;26.83;17.17;;;;;;;;;;4954678;28;20186;-86
2021/03/19 00:11:09;;;;;;;26.40;16.87;;;;;;;;;;4954609;28;20203;-86
2021/03/19 00:13:35;;;;;;;27.63;16.23;;;;;;;;;;4954598;28;20258;-86
2021/03/19 00:16:00;;;;;;;29.00;17.60;;;;;;;;;;4954679;28;20172;-86
2021/03/19 00:18:25;;;;;;;30.93;17.60;;;;;;;;;;4954790;29;20701;-86
2021/03/19 00:20:51;;;;;;;29.97;18.40;;;;;;;;;;4954199;29;20175;-86
2021/03/19 00:23:16;;;;;;;24.47;16.27;;;;;;;;;;4954473;28;20234;-86
2021/03/19 00:25:42;;;;;;;28.70;17.00;;;;;;;;;;4937255;29;20202;-86
2021/03/19 00:28:13;;;;;;;27.07;15.80;;;;;;;;;;4954190;28;20637;-86
2021/03/19 00:30:38;;;;;;;23.33;15.00;;;;;;;;;;4954235;29;20156;-86
2021/03/19 00:33:04;;;;;;;24.03;15.93;;;;;;;;;;4954473;28;20209;-86
2021/03/19 00:35:29;;;;;;;26.10;16.17;;;;;;;;;;4954833;29;20175;-85
2021/03/19 00:37:55;;;;;;;25.97;17.13;;;;;;;;;;4954391;28;20198;-85
2021/03/19 00:40:20;;;;;;;27.73;18.40;;;;;;;;;;4954071;28;20175;-85
2021/03/19 00:42:46;;;;;;;19.53;13.73;;;;;;;;;;4954615;28;20179;-85
2021/03/19 00:45:13;;;;;;;20.60;14.40;;;;;;;;;;4953976;28;20585;-85
2021/03/19 00:47:39;;;;;;;20.37;13.60;;;;;;;;;;4954500;28;20229;-85
2021/03/19 00:50:09;;;;;;;21.10;13.87;;;;;;;;;;4954600;28;20537;-85
2021/03/19 00:52:34;;;;;;;23.53;15.03;;;;;;;;;;4957543;29;20199;-84
2021/03/19 00:54:59;;;;;;;23.27;15.70;;;;;;;;;;4958011;29;20258;-83
2021/03/19 00:57:25;;;;;;;28.73;16.90;;;;;;;;;;4958018;28;20175;-85
2021/03/19 00:59:50;;;;;;;21.57;14.70;;;;;;;;;;4957974;28;20175;-85
2021/03/19 01:02:16;;;;;;;20.10;14.80;;;;;;;;;;4957901;28;20179;-85
2021/03/19 01:04:42;;;;;;;24.20;16.10;;;;;;;;;;4957867;29;20172;-85
2021/03/19 01:07:07;;;;;;;19.67;14.93;;;;;;;;;;4940773;29;20205;-85
2021/03/19 01:09:32;;;;;;;18.70;14.30;;;;;;;;;;4957922;29;20533;-84
2021/03/19 01:11:58;;;;;;;18.70;14.03;;;;;;;;;;4958067;28;20215;-85
2021/03/19 01:14:23;;;;;;;18.33;13.60;;;;;;;;;;4957441;28;20266;-85
2021/03/19 01:16:48;;;;;;;32.97;18.57;;;;;;;;;;4957405;29;20202;-85
2021/03/19 01:19:14;;;;;;;25.73;16.83;;;;;;;;;;4957395;28;20254;-85
2021/03/19 01:21:39;;;;;;;20.13;14.43;;;;;;;;;;4957412;28;20202;-86
2021/03/19 01:24:05;;;;;;;21.73;15.47;;;;;;;;;;4957514;28;20171;-85
2021/03/19 01:26:30;;;;;;;19.37;14.70;;;;;;;;;;4957556;28;20177;-86
2021/03/19 01:28:55;;;;;;;19.03;13.43;;;;;;;;;;4957333;29;20206;-86
2021/03/19 01:31:21;;;;;;;19.17;14.10;;;;;;;;;;4957525;29;20207;-85
2021/03/19 01:33:46;;;;;;;19.23;13.87;;;;;;;;;;4940139;29;20187;-86
2021/03/19 01:36:12;;;;;;;22.27;14.60;;;;;;;;;;4957173;28;20284;-85
2021/03/19 01:38:38;;;;;;;23.43;15.77;;;;;;;;;;4957112;29;20179;-85
2021/03/19 01:41:04;;;;;;;24.00;15.27;;;;;;;;;;4957122;29;20187;-83
2021/03/19 01:43:29;;;;;;;26.97;16.80;;;;;;;;;;4957858;28;20634;-86
2021/03/19 01:46:03;;;;;;;29.83;20.00;;;;;;;;;;4956728;28;20198;-85
2021/03/19 01:48:47;;;;;;;35.03;21.57;;;;;;;;;;4957377;29;20167;-85
2021/03/19 01:51:31;;;;;;;37.33;22.93;;;;;;;;;;4957359;29;20186;-85
2021/03/19 01:54:15;;;;;;;37.03;22.13;;;;;;;;;;4956786;28;20179;-85
2021/03/19 01:56:59;;;;;;;36.67;22.30;;;;;;;;;;4957221;29;20175;-85
2021/03/19 01:59:42;;;;;;;36.60;22.33;;;;;;;;;;4957228;28;20614;-88
2021/03/19 02:02:26;;;;;;;40.70;25.37;;;;;;;;;;4956364;28;20182;-84
2021/03/19 02:05:10;;;;;;;44.27;27.37;;;;;;;;;;4957041;28;20182;-85
2021/03/19 02:07:54;;;;;;;41.87;24.70;;;;;;;;;;4956510;29;20225;-83
2021/03/19 02:10:38;;;;;;;45.83;25.90;;;;;;;;;;4956821;29;20167;-84
2021/03/19 02:13:22;;;;;;;145.57;52.33;;;;;;;;;;4957013;29;20203;-85
2021/03/19 02:16:05;;;;;;;80.53;35.70;;;;;;;;;;4956816;28;20175;-84
2021/03/19 02:18:49;;;;;;;46.33;26.47;;;;;;;;;;4956356;28;20652;-84
2021/03/19 02:21:33;;;;;;;42.87;25.47;;;;;;;;;;4956305;28;20178;-84
2021/03/19 02:24:17;;;;;;;40.53;24.43;;;;;;;;;;4956825;28;20179;-85
2021/03/19 02:27:01;;;;;;;38.40;24.23;;;;;;;;;;4956208;29;20358;-85
2021/03/19 02:29:44;;;;;;;39.53;23.87;;;;;;;;;;4956096;29;20258;-85
2021/03/19 02:32:10;;;;;;;41.33;23.80;;;;;;;;;;4956395;28;20254;-85
2021/03/19 02:34:43;;;;;;;41.17;23.23;;;;;;;;;;4956248;29;20176;-85
2021/03/19 02:37:12;;;;;;;40.97;23.53;;;;;;;;;;4956369;28;20186;-84
2021/03/19 02:39:38;;;;;;;38.70;22.17;;;;;;;;;;4956209;29;20179;-85
2021/03/19 02:42:04;;;;;;;36.93;21.97;;;;;;;;;;4956385;28;20186;-85
2021/03/19 02:44:29;;;;;;;35.27;22.33;;;;;;;;;;4956135;29;20626;-85
2021/03/19 02:46:54;;;;;;;37.23;22.03;;;;;;;;;;4955729;28;20235;-85
2021/03/19 02:49:20;;;;;;;35.70;22.00;;;;;;;;;;4956096;29;20642;-85
2021/03/19 02:51:45;;;;;;;42.27;23.13;;;;;;;;;;4955887;28;20195;-85
2021/03/19 02:54:10;;;;;;;38.43;23.13;;;;;;;;;;4955976;29;20175;-85
2021/03/19 02:56:36;;;;;;;38.33;22.73;;;;;;;;;;4955870;29;20279;-85
2021/03/19 02:59:01;;;;;;;39.57;22.97;;;;;;;;;;4955841;28;20626;-85
2021/03/19 03:01:27;;;;;;;37.30;21.70;;;;;;;;;;4955769;28;20175;-85
2021/03/19 03:03:52;;;;;;;33.13;20.60;;;;;;;;;;4955734;29;20508;-85
2021/03/19 03:06:17;;;;;;;36.00;20.43;;;;;;;;;;4955711;28;20226;-85
2021/03/19 03:08:42;;;;;;;36.33;21.13;;;;;;;;;;4955819;28;20256;-84
2021/03/19 03:11:08;;;;;;;33.37;20.13;;;;;;;;;;4955544;28;20171;-85
2021/03/19 03:13:34;;;;;;;31.27;19.03;;;;;;;;;;4955349;28;20191;-85
2021/03/19 03:15:59;;;;;;;28.27;18.07;;;;;;;;;;4955318;28;20181;-85
2021/03/19 03:18:24;;;;;;;25.07;17.47;;;;;;;;;;4955608;28;20183;-85
2021/03/19 03:20:51;;;;;;;25.53;16.30;;;;;;;;;;4955101;29;20171;-85
2021/03/19 03:23:17;;;;;;;28.57;17.90;;;;;;;;;;4955375;28;20182;-84
2021/03/19 03:25:43;;;;;;;25.43;16.80;;;;;;;;;;4955052;29;20626;-85
2021/03/19 03:28:09;;;;;;;28.73;17.50;;;;;;;;;;4955668;29;20209;-86
2021/03/19 03:30:38;;;;;;;30.40;18.17;;;;;;;;;;4938082;29;20172;-85
2021/03/19 03:33:04;;;;;;;28.10;17.83;;;;;;;;;;4955282;29;20203;-85
2021/03/19 03:35:30;;;;;;;33.17;18.50;;;;;;;;;;4938090;29;20515;-85
2021/03/19 03:37:56;;;;;;;37.97;21.03;;;;;;;;;;4954943;29;20186;-85
2021/03/19 03:40:27;;;;;;;32.23;18.40;;;;;;;;;;4954812;29;20257;-85
2021/03/19 03:42:52;;;;;;;26.87;16.83;;;;;;;;;;4954820;29;20181;-86
2021/03/19 03:45:17;;;;;;;29.33;17.97;;;;;;;;;;4954968;28;20171;-85
2021/03/19 03:47:43;;;;;;;27.60;17.10;;;;;;;;;;4955097;28;20227;-83
2021/03/19 03:50:10;;;;;;;27.67;18.07;;;;;;;;;;4955255;29;20222;-86
2021/03/19 03:52:36;;;;;;;30.90;18.20;;;;;;;;;;4954826;29;20226;-86
2021/03/19 03:55:01;;;;;;;30.57;18.13;;;;;;;;;;4954910;28;20186;-86
2021/03/19 03:57:27;;;;;;;33.90;19.47;;;;;;;;;;4954802;29;20266;-86
2021/03/19 03:59:52;;;;;;;30.53;18.20;;;;;;;;;;4954497;28;20262;-86
2021/03/19 04:02:19;;;;;;;36.07;19.97;;;;;;;;;;4954474;28;20203;-85
2021/03/19 04:04:46;;;;;;;31.97;19.90;;;;;;;;;;4954751;29;20227;-86
2021/03/19 04:07:11;;;;;;;30.83;18.43;;;;;;;;;;4954750;29;20186;-86
2021/03/19 04:09:36;;;;;;;32.27;20.43;;;;;;;;;;4954727;28;20183;-86
2021/03/19 04:12:02;;;;;;;28.43;18.50;;;;;;;;;;4954324;29;20209;-87
2021/03/19 04:14:27;;;;;;;31.60;19.93;;;;;;;;;;4954744;28;20270;-86
2021/03/19 04:16:53;;;;;;;31.30;19.13;;;;;;;;;;4954394;28;20203;-87
2021/03/19 04:19:18;;;;;;;31.07;19.43;;;;;;;;;;4954796;29;20167;-85
2021/03/19 04:21:43;;;;;;;32.47;19.80;;;;;;;;;;4954830;29;20213;-86
2021/03/19 04:24:09;;;;;;;29.90;19.90;;;;;;;;;;4954217;29;20526;-86
2021/03/19 04:26:34;;;;;;;32.57;20.13;;;;;;;;;;4953679;28;20187;-86
2021/03/19 04:29:00;;;;;;;32.10;19.20;;;;;;;;;;4954476;29;20172;-85
2021/03/19 04:31:25;;;;;;;28.63;18.87;;;;;;;;;;4954319;28;20688;-84
2021/03/19 04:33:51;;;;;;;28.57;18.20;;;;;;;;;;4937391;29;20187;-84
2021/03/19 04:36:29;;;;;;;29.43;18.83;;;;;;;;;;4954892;28;20258;-85
2021/03/19 04:38:56;;;;;;;29.43;18.97;;;;;;;;;;4954377;29;20521;-85
2021/03/19 04:41:21;;;;;;;30.70;18.77;;;;;;;;;;4954038;29;20171;-85
2021/03/19 04:43:47;;;;;;;32.47;19.33;;;;;;;;;;4954612;28;20765;-86
2021/03/19 04:46:12;;;;;;;30.73;18.33;;;;;;;;;;4954129;28;20239;-86
2021/03/19 04:48:38;;;;;;;28.53;19.03;;;;;;;;;;4954253;28;20171;-86
2021/03/19 04:51:03;;;;;;;35.33;20.90;;;;;;;;;;4953946;28;20235;-85
2021/03/19 04:53:28;;;;;;;33.57;20.70;;;;;;;;;;4953867;29;20253;-85
2021/03/19 04:55:54;;;;;;;37.03;21.63;;;;;;;;;;4953873;28;20511;-85
2021/03/19 04:58:19;;;;;;;39.37;22.40;;;;;;;;;;4953969;28;20630;-84
2021/03/19 05:00:44;;;;;;;39.93;23.00;;;;;;;;;;4954172;29;20175;-85
2021/03/19 05:03:10;;;;;;;38.10;22.07;;;;;;;;;;4953958;29;20266;-86
2021/03/19 05:05:35;;;;;;;38.70;22.43;;;;;;;;;;4954056;28;20529;-85
2021/03/19 05:08:01;;;;;;;40.03;22.77;;;;;;;;;;4954160;29;20644;-85
2021/03/19 05:10:29;;;;;;;38.57;22.87;;;;;;;;;;4954230;29;20175;-85
2021/03/19 05:12:54;;;;;;;38.53;22.00;;;;;;;;;;4952706;29;20203;-85
2021/03/19 05:15:20;;;;;;;44.10;26.00;;;;;;;;;;4954143;29;20503;-83
2021/03/19 05:17:45;;;;;;;41.93;21.77;;;;;;;;;;4954458;28;20183;-85
2021/03/19 05:20:11;;;;;;;43.77;23.23;;;;;;;;;;4952717;29;20175;-85
2021/03/19 05:22:37;;;;;;;39.13;23.37;;;;;;;;;;4954038;28;20175;-85
2021/03/19 05:25:03;;;;;;;39.50;23.90;;;;;;;;;;4953779;28;20175;-85
2021/03/19 05:27:29;;;;;;;36.13;23.47;;;;;;;;;;4953681;28;20234;-85
2021/03/19 05:29:55;;;;;;;38.13;23.70;;;;;;;;;;4953863;29;20171;-85
2021/03/19 05:32:21;;;;;;;43.13;25.40;;;;;;;;;;4954054;29;20199;-85
2021/03/19 05:34:47;;;;;;;35.27;23.80;;;;;;;;;;4954227;29;20184;-85
2021/03/19 05:37:13;;;;;;;32.87;21.70;;;;;;;;;;4954974;28;20175;-85
2021/03/19 05:39:38;;;;;;;29.90;19.97;;;;;;;;;;4957171;29;20171;-85
2021/03/19 05:42:09;;;;;;;29.07;18.60;;;;;;;;;;4957263;29;20186;-85
2021/03/19 05:44:34;;;;;;;27.33;18.90;;;;;;;;;;4957016;29;20246;-86
2021/03/19 05:47:01;;;;;;;29.90;19.40;;;;;;;;;;4956607;28;20278;-86
2021/03/19 05:49:31;;;;;;;30.40;18.90;;;;;;;;;;4957301;29;20175;-86
2021/03/19 05:52:01;;;;;;;26.40;17.27;;;;;;;;;;4957201;29;20202;-85
2021/03/19 05:54:28;;;;;;;30.17;17.77;;;;;;;;;;4955651;29;20179;-85
2021/03/19 05:57:00;;;;;;;24.77;17.13;;;;;;;;;;4957324;28;20179;-85
2021/03/19 05:59:26;;;;;;;27.77;17.77;;;;;;;;;;4956808;28;20176;-85
2021/03/19 06:01:51;;;;;;;29.33;19.50;;;;;;;;;;4957234;28;20171;-86
2021/03/19 06:04:21;;;;;;;27.87;20.20;;;;;;;;;;4957006;28;20295;-85
2021/03/19 06:06:49;;;;;;;28.07;17.50;;;;;;;;;;4957055;29;20182;-85
2021/03/19 06:09:25;;;;;;;32.53;19.77;;;;;;;;;;4956588;28;20182;-84
2021/03/19 06:11:52;;;;;;;41.27;23.57;;;;;;;;;;4955951;29;20206;-84
2021/03/19 06:14:17;;;;;;;31.60;19.80;;;;;;;;;;4956579;29;20180;-85
2021/03/19 06:16:45;;;;;;;30.60;19.83;;;;;;;;;;4956512;29;20262;-86
2021/03/19 06:19:30;;;;;;;28.63;19.70;;;;;;;;;;4956822;28;20254;-85
2021/03/19 06:22:14;;;;;;;26.43;17.50;;;;;;;;;;4955010;29;20533;-85
2021/03/19 06:24:40;;;;;;;28.20;18.57;;;;;;;;;;4956800;28;20175;-86
2021/03/19 06:27:19;;;;;;;27.37;18.17;;;;;;;;;;4956327;28;20173;-86
2021/03/19 06:29:55;;;;;;;32.37;18.60;;;;;;;;;;4956594;29;20163;-86
2021/03/19 06:32:20;;;;;;;27.97;17.77;;;;;;;;;;4956502;29;20201;-85
2021/03/19 06:35:07;;;;;;;27.90;17.13;;;;;;;;;;4956168;29;20242;-85
2021/03/19 06:37:41;;;;;;;25.73;16.83;;;;;;;;;;4945993;29;20187;-84
2021/03/19 06:40:15;;;;;;;22.93;16.73;;;;;;;;;;4956018;28;20171;-84
2021/03/19 06:42:41;;;;;;;29.70;20.53;;;;;;;;;;4956299;28;20175;-84
2021/03/19 06:45:15;;;;;;;32.70;21.53;;;;;;;;;;4956146;28;20222;-84
2021/03/19 06:47:46;;;;;;;49.90;34.77;;;;;;;;;;4955640;28;20569;-84
2021/03/19 06:50:35;;;;;;;35.20;25.07;;;;;;;;;;4955542;28;20195;-85
2021/03/19 06:53:15;;;;;;;33.67;20.97;;;;;;;;;;4948162;29;20211;-84
2021/03/19 06:55:40;;;;;;;27.27;18.33;;;;;;;;;;4956351;28;20203;-85
2021/03/19 06:58:05;;;;;;;25.63;18.47;;;;;;;;;;4956081;28;20214;-85
2021/03/19 07:00:36;;;;;;;26.33;18.90;;;;;;;;;;4956022;29;20634;-85
2021/03/19 07:03:01;;;;;;;25.50;17.77;;;;;;;;;;4955995;28;20186;-85
2021/03/19 07:05:44;;;;;;;25.80;18.73;;;;;;;;;;4938628;29;20184;-85
2021/03/19 07:08:13;;;;;;;30.23;20.00;;;;;;;;;;4956059;29;20163;-86
2021/03/19 07:10:48;;;;;;;27.77;19.43;;;;;;;;;;4955838;28;20186;-85
2021/03/19 07:13:32;;;;;;;22.53;16.20;;;;;;;;;;4955707;29;20237;-86
2021/03/19 07:16:02;;;;;;;20.57;15.83;;;;;;;;;;4956127;29;20175;-85
2021/03/19 07:18:34;;;;;;;18.60;14.33;;;;;;;;;;4955554;28;20222;-85
2021/03/19 07:20:59;;;;;;;17.67;14.43;;;;;;;;;;4938538;29;20208;-85
2021/03/19 07:23:26;;;;;;;20.73;15.70;;;;;;;;;;4955385;29;20529;-86
2021/03/19 07:25:53;;;;;;;23.40;16.97;;;;;;;;;;4955094;28;20261;-85
2021/03/19 07:28:18;;;;;;;49.10;33.63;;;;;;;;;;4955361;28;20618;-86
2021/03/19 07:30:56;;;;;;;24.60;18.03;;;;;;;;;;4955137;29;20171;-85
2021/03/19 07:33:24;;;;;;;21.97;18.77;;;;;;;;;;4955286;29;20191;-85
2021/03/19 07:36:04;;;;;;;15.63;13.73;;;;;;;;;;4959146;28;20587;-85
2021/03/19 07:38:32;;;;;;;56.40;31.43;;;;;;;;;;4949838;28;20633;-86
2021/03/19 07:41:00;;;;;;;18.97;15.27;;;;;;;;;;4960769;28;20681;-86
2021/03/19 07:43:25;;;;;;;22.77;16.70;;;;;;;;;;4955241;28;20513;-85
2021/03/19 07:46:00;;;;;;;18.23;13.67;;;;;;;;;;4974217;28;20206;-85
2021/03/19 07:48:34;;;;;;;18.10;14.60;;;;;;;;;;4974257;28;20581;-84
2021/03/19 07:50:59;;;;;;;28.67;21.60;;;;;;;;;;4974808;28;20173;-86
2021/03/19 07:53:27;;;;;;;17.90;13.70;;;;;;;;;;4962427;28;20210;-86
2021/03/19 07:56:02;;;;;;;15.03;12.10;;;;;;;;;;4960409;28;20221;-86
2021/03/19 07:58:27;;;;;;;17.43;13.33;;;;;;;;;;4974313;28;20174;-86
2021/03/19 08:01:13;;;;;;;17.60;11.97;;;;;;;;;;4956889;28;20240;-86
2021/03/19 08:03:39;;;;;;;13.77;12.23;;;;;;;;;;4933421;28;20190;-86
2021/03/19 08:06:10;;;;;;;17.00;12.87;;;;;;;;;;4974112;28;20175;-85
2021/03/19 08:08:54;;;;;;;17.27;11.97;;;;;;;;;;4974182;28;20513;-85
2021/03/19 08:11:29;;;;;;;14.43;10.93;;;;;;;;;;4955762;28;20182;-86
2021/03/19 08:14:02;;;;;;;14.00;10.60;;;;;;;;;;4973897;28;20554;-86
2021/03/19 08:16:42;;;;;;;12.50;10.00;;;;;;;;;;4973805;28;20213;-86
2021/03/19 08:19:26;;;;;;;13.43;11.50;;;;;;;;;;4974200;28;20613;-85
2021/03/19 08:22:09;;;;;;;20.27;10.83;;;;;;;;;;4973757;28;20606;-86
2021/03/19 08:24:53;;;;;;;13.77;10.00;;;;;;;;;;4974208;28;20174;-86
2021/03/19 08:27:53;;;;;;;11.73;8.53;;;;;;;;;;4973636;28;20505;-86
2021/03/19 08:30:57;;;;;;;12.00;9.20;;;;;;;;;;4974195;28;20166;-85
2021/03/19 08:33:29;;;;;;;8.50;7.27;;;;;;;;;;4973692;28;20285;-86
2021/03/19 08:36:12;;;;;;;11.20;8.60;;;;;;;;;;4973527;28;20178;-87
2021/03/19 08:38:44;;;;;;;10.80;7.87;;;;;;;;;;4955752;28;20250;-87
2021/03/19 08:41:17;;;;;;;11.93;9.43;;;;;;;;;;4972869;28;20190;-85
2021/03/19 08:43:46;;;;;;;13.07;10.07;;;;;;;;;;4973178;28;20186;-86
2021/03/19 08:46:31;;;;;;;7.97;7.17;;;;;;;;;;4957003;28;20234;-85
2021/03/19 08:49:05;;;;;;;16.70;10.73;;;;;;;;;;4957533;28;20248;-86
2021/03/19 08:51:39;;;;;;;22.30;13.13;;;;;;;;;;4957128;28;20553;-86
2021/03/19 08:54:18;;;;;;;11.37;8.50;;;;;;;;;;4974694;28;20217;-85
2021/03/19 08:56:46;;;;;;;7.63;6.83;;;;;;;;;;4974748;28;20627;-86
2021/03/19 08:59:37;;;;;;;8.37;6.50;;;;;;;;;;4974759;28;20213;-86
2021/03/19 09:02:22;;;;;;;7.20;5.93;;;;;;;;;;4970266;28;21048;-86
2021/03/19 09:04:52;;;;;;;6.37;5.27;;;;;;;;;;4954195;28;20178;-83
2021/03/19 09:07:20;;;;;;;6.47;5.37;;;;;;;;;;4971260;28;20523;-85
2021/03/19 09:09:46;;;;;;;7.63;6.33;;;;;;;;;;4972729;28;20189;-85
2021/03/19 09:12:12;;;;;;;6.23;5.63;;;;;;;;;;4973955;28;20206;-85
2021/03/19 09:14:39;;;;;;;7.27;6.00;;;;;;;;;;4977541;28;20194;-84
2021/03/19 09:17:10;;;;;;;4.33;3.97;;;;;;;;;;4976550;28;20185;-85
2021/03/19 09:19:54;;;;;;;9.50;8.50;;;;;;;;;;4977207;28;20614;-85
2021/03/19 09:22:20;;;;;;;6.13;5.53;;;;;;;;;;4977027;28;20190;-84
2021/03/19 09:25:17;;;;;;;8.37;5.80;;;;;;;;;;4977142;28;20178;-84
2021/03/19 09:27:45;;;;;;;9.63;6.87;;;;;;;;;;4933744;28;20195;-85
2021/03/19 09:30:27;;;;;;;8.63;6.07;;;;;;;;;;4977034;28;20167;-84
2021/03/19 09:32:56;;;;;;;7.43;5.33;;;;;;;;;;4976428;28;20195;-84
2021/03/19 09:35:40;;;;;;;7.53;6.00;;;;;;;;;;4976610;28;20187;-84
2021/03/19 09:38:11;;;;;;;7.83;6.17;;;;;;;;;;4977374;28;20225;-84
2021/03/19 09:40:43;;;;;;;11.10;7.90;;;;;;;;;;4976958;28;20162;-84
2021/03/19 09:43:10;;;;;;;9.73;6.90;;;;;;;;;;4976738;28;20175;-84
2021/03/19 09:45:37;;;;;;;7.90;6.53;;;;;;;;;;4976937;28;20174;-84
2021/03/19 09:48:17;;;;;;;7.93;6.20;;;;;;;;;;4959027;28;20242;-84
2021/03/19 09:50:56;;;;;;;9.60;7.27;;;;;;;;;;4974422;28;20190;-84
2021/03/19 09:53:29;;;;;;;7.80;6.03;;;;;;;;;;4975697;28;20217;-85
2021/03/19 09:56:00;;;;;;;7.00;5.57;;;;;;;;;;4976799;28;20175;-85
2021/03/19 09:58:37;;;;;;;9.60;6.53;;;;;;;;;;4976240;28;20225;-84
2021/03/19 10:01:03;;;;;;;9.00;6.53;;;;;;;;;;4975798;28;20181;-84
2021/03/19 10:03:38;;;;;;;9.00;7.07;;;;;;;;;;4976207;28;20607;-84
2021/03/19 10:06:14;;;;;;;7.63;6.73;;;;;;;;;;4958956;28;20629;-85
2021/03/19 10:08:39;;;;;;;7.00;5.80;;;;;;;;;;4976065;28;20174;-85
2021/03/19 10:11:06;;;;;;;7.37;5.97;;;;;;;;;;4963016;28;20174;-84
2021/03/19 10:13:31;;;;;;;8.40;7.33;;;;;;;;;;4965478;28;20243;-84
2021/03/19 10:15:56;;;;;;;7.23;5.67;;;;;;;;;;4973849;28;20581;-84
2021/03/19 10:18:28;;;;;;;6.93;5.00;;;;;;;;;;4973752;28;20170;-83
2021/03/19 10:20:55;;;;;;;5.20;4.70;;;;;;;;;;4973181;28;20262;-83
2021/03/19 10:23:27;;;;;;;5.17;4.67;;;;;;;;;;4972577;28;20248;-83
2021/03/19 10:26:03;;;;;;;5.13;4.63;;;;;;;;;;4974680;28;20163;-86
2021/03/19 10:28:32;;;;;;;5.73;4.80;;;;;;;;;;4975424;28;20233;-84
2021/03/19 10:31:04;;;;;;;5.20;4.70;;;;;;;;;;4975590;28;20175;-84
2021/03/19 10:33:51;;;;;;;5.13;4.47;;;;;;;;;;4975556;28;20202;-84
2021/03/19 10:36:18;;;;;;;5.50;4.83;;;;;;;;;;4975594;28;20179;-85
2021/03/19 10:38:48;;;;;;;5.20;4.70;;;;;;;;;;4975699;28;20212;-84
2021/03/19 10:41:32;;;;;;;6.07;4.90;;;;;;;;;;4975470;28;20171;-84
2021/03/19 10:44:08;;;;;;;4.30;3.90;;;;;;;;;;4958020;28;20193;-84
2021/03/19 10:46:41;;;;;;;9.00;4.70;;;;;;;;;;4975011;28;20237;-87
2021/03/19 10:49:14;;;;;;;9.73;8.80;;;;;;;;;;4975463;28;20185;-85
2021/03/19 10:51:45;;;;;;;7.20;5.90;;;;;;;;;;4975325;28;20170;-85
2021/03/19 10:54:10;;;;;;;8.13;6.13;;;;;;;;;;4974905;28;20190;-85
2021/03/19 10:56:43;;;;;;;5.17;4.10;;;;;;;;;;4975120;28;20170;-85
2021/03/19 10:59:10;;;;;;;12.80;8.33;;;;;;;;;;4975332;28;20166;-85
2021/03/19 11:01:41;;;;;;;11.37;7.27;;;;;;;;;;4975220;28;20175;-85
2021/03/19 11:04:26;;;;;;;29.97;13.03;;;;;;;;;;4973057;28;20166;-86
2021/03/19 11:06:52;;;;;;;21.17;10.93;;;;;;;;;;4957696;28;20637;-86
2021/03/19 11:09:21;;;;;;;22.73;12.80;;;;;;;;;;4974771;28;20213;-85
2021/03/19 11:11:49;;;;;;;12.23;8.60;;;;;;;;;;4974581;28;20294;-83
2021/03/19 11:14:15;;;;;;;14.53;8.90;;;;;;;;;;4975129;28;20626;-85
2021/03/19 11:16:45;;;;;;;14.87;8.70;;;;;;;;;;4975043;28;20193;-85
2021/03/19 11:19:15;;;;;;;14.33;8.77;;;;;;;;;;4956911;28;20629;-85
2021/03/19 11:21:41;;;;;;;14.97;10.30;;;;;;;;;;4957133;28;20179;-85
2021/03/19 11:24:24;;;;;;;14.73;10.30;;;;;;;;;;4974702;28;20185;-85
2021/03/19 11:26:57;;;;;;;15.53;10.70;;;;;;;;;;4974595;28;20664;-85
2021/03/19 11:29:25;;;;;;;10.60;8.80;;;;;;;;;;4974731;28;20174;-85
2021/03/19 11:32:09;;;;;;;12.20;9.27;;;;;;;;;;4973996;28;20206;-85
2021/03/19 11:34:47;;;;;;;11.67;8.57;;;;;;;;;;4973093;28;20174;-85
2021/03/19 11:37:15;;;;;;;13.37;9.80;;;;;;;;;;4957114;28;20716;-85
2021/03/19 11:39:59;;;;;;;8.87;6.50;;;;;;;;;;4972546;28;20181;-85
2021/03/19 11:42:26;;;;;;;6.53;5.47;;;;;;;;;;4973836;28;20166;-85
2021/03/19 11:44:56;;;;;;;7.70;6.43;;;;;;;;;;4972253;28;20262;-86
2021/03/19 11:47:33;;;;;;;5.77;4.70;;;;;;;;;;4973548;28;20715;-85
2021/03/19 11:50:10;;;;;;;6.50;5.20;;;;;;;;;;4973001;28;20214;-86
2021/03/19 11:52:36;;;;;;;6.37;5.00;;;;;;;;;;4974082;28;20260;-86
2021/03/19 11:55:02;;;;;;;4.63;4.10;;;;;;;;;;4973929;28;20167;-86
2021/03/19 11:57:28;;;;;;;8.93;6.90;;;;;;;;;;4974081;28;20171;-85
2021/03/19 11:59:53;;;;;;;5.77;5.17;;;;;;;;;;4972979;28;20190;-85
2021/03/19 12:02:30;;;;;;;4.03;3.50;;;;;;;;;;4972884;28;20178;-85
2021/03/19 12:04:56;;;;;;;4.17;3.70;;;;;;;;;;4973472;28;20317;-86
2021/03/19 12:07:21;;;;;;;5.00;4.47;;;;;;;;;;4973587;28;20665;-85
2021/03/19 12:09:48;;;;;;;5.03;4.53;;;;;;;;;;4956819;28;20205;-85
2021/03/19 12:12:14;;;;;;;6.27;5.17;;;;;;;;;;4972568;28;20272;-85
2021/03/19 12:14:39;;;;;;;7.90;6.50;;;;;;;;;;4971682;28;20213;-85
2021/03/19 12:17:05;;;;;;;6.77;5.63;;;;;;;;;;4971782;28;20175;-85
2021/03/19 12:19:30;;;;;;;6.20;5.57;;;;;;;;;;4971425;28;20578;-85
2021/03/19 12:21:55;;;;;;;5.97;5.40;;;;;;;;;;4970278;28;20174;-85
2021/03/19 12:24:21;;;;;;;7.20;5.27;;;;;;;;;;4954566;28;20920;-84
2021/03/19 12:26:47;;;;;;;5.37;4.30;;;;;;;;;;4971990;28;20182;-84
2021/03/19 12:29:15;;;;;;;6.47;5.43;;;;;;;;;;4971676;28;20289;-84
2021/03/19 12:31:42;;;;;;;9.07;6.60;;;;;;;;;;4970715;28;20182;-85
2021/03/19 12:34:08;;;;;;;11.23;7.13;;;;;;;;;;4971470;28;20175;-85
2021/03/19 12:36:33;;;;;;;5.47;4.30;;;;;;;;;;4971960;28;20282;-85
2021/03/19 12:38:59;;;;;;;6.77;5.80;;;;;;;;;;4971836;28;20261;-85
2021/03/19 12:41:24;;;;;;;6.87;5.70;;;;;;;;;;4973652;28;20209;-83
2021/03/19 12:43:49;;;;;;;7.60;5.30;;;;;;;;;;4971922;28;20274;-85
2021/03/19 12:46:15;;;;;;;9.47;4.83;;;;;;;;;;4973187;28;20284;-85
2021/03/19 12:48:41;;;;;;;6.20;5.60;;;;;;;;;;4977264;28;20178;-85
2021/03/19 12:51:06;;;;;;;6.87;5.10;;;;;;;;;;4977538;28;20660;-84
2021/03/19 12:53:34;;;;;;;6.30;5.70;;;;;;;;;;4977335;28;20232;-85
2021/03/19 12:56:03;;;;;;;8.23;6.60;;;;;;;;;;4960093;28;20532;-86
2021/03/19 12:58:28;;;;;;;6.63;5.70;;;;;;;;;;4977575;28;20700;-84
2021/03/19 13:00:54;;;;;;;9.17;7.40;;;;;;;;;;4977570;28;20167;-83
2021/03/19 13:03:19;;;;;;;8.93;7.43;;;;;;;;;;4977662;28;20228;-84
2021/03/19 13:05:44;;;;;;;9.63;8.63;;;;;;;;;;4977354;28;20232;-85
2021/03/19 13:08:10;;;;;;;10.43;8.63;;;;;;;;;;4977284;28;20198;-84
2021/03/19 13:10:37;;;;;;;20.73;11.73;;;;;;;;;;4977287;28;20174;-84
2021/03/19 13:13:03;;;;;;;21.70;12.77;;;;;;;;;;4977158;28;20201;-83
2021/03/19 13:15:31;;;;;;;17.27;10.57;;;;;;;;;;4977233;28;20182;-83
2021/03/19 13:17:56;;;;;;;16.67;11.80;;;;;;;;;;4975840;28;20322;-84
2021/03/19 13:20:22;;;;;;;13.27;11.17;;;;;;;;;;4976558;28;20537;-83
2021/03/19 13:22:48;;;;;;;13.20;10.90;;;;;;;;;;4976970;28;20197;-83
2021/03/19 13:25:15;;;;;;;23.30;13.67;;;;;;;;;;4959608;28;20632;-84
2021/03/19 13:27:41;;;;;;;17.37;11.07;;;;;;;;;;4976790;28;20198;-84
2021/03/19 13:30:09;;;;;;;12.80;10.03;;;;;;;;;;4976883;28;20202;-84
2021/03/19 13:32:34;;;;;;;14.40;10.70;;;;;;;;;;4976713;28;20558;-83
2021/03/19 13:35:02;;;;;;;17.60;11.97;;;;;;;;;;4976826;28;20178;-83
2021/03/19 13:37:31;;;;;;;21.80;13.17;;;;;;;;;;4976692;28;20166;-83
2021/03/19 13:39:56;;;;;;;20.40;11.47;;;;;;;;;;4976423;28;20178;-83
2021/03/19 13:42:22;;;;;;;14.27;9.13;;;;;;;;;;4976938;28;20225;-83
2021/03/19 13:44:47;;;;;;;14.30;9.97;;;;;;;;;;4976315;28;20213;-83
2021/03/19 13:47:12;;;;;;;14.50;10.87;;;;;;;;;;4976147;28;20230;-85
2021/03/19 13:49:38;;;;;;;11.40;8.57;;;;;;;;;;4976139;28;20182;-84
2021/03/19 13:52:04;;;;;;;14.00;9.23;;;;;;;;;;4975912;28;20210;-83
2021/03/19 13:54:29;;;;;;;11.03;9.73;;;;;;;;;;4976457;28;20182;-84
2021/03/19 13:57:02;;;;;;;14.70;9.90;;;;;;;;;;4976550;28;20253;-84
2021/03/19 13:59:27;;;;;;;18.83;12.13;;;;;;;;;;4975843;28;20272;-84
2021/03/19 14:01:53;;;;;;;12.50;9.30;;;;;;;;;;4959112;28;20653;-85
2021/03/19 14:04:18;;;;;;;10.67;9.30;;;;;;;;;;4976140;28;20229;-85
2021/03/19 14:06:44;;;;;;;37.90;17.37;;;;;;;;;;4976276;28;20174;-85
2021/03/19 14:09:09;;;;;;;15.87;10.97;;;;;;;;;;4975653;28;20166;-84
2021/03/19 14:11:35;;;;;;;27.47;15.27;;;;;;;;;;4958670;28;20656;-83
2021/03/19 14:14:00;;;;;;;25.37;14.70;;;;;;;;;;4976028;28;20174;-83
2021/03/19 14:16:25;;;;;;;20.80;12.80;;;;;;;;;;4976012;28;20601;-83
2021/03/19 14:18:51;;;;;;;17.83;11.13;;;;;;;;;;4976044;28;20170;-83
2021/03/19 14:21:16;;;;;;;29.60;23.37;;;;;;;;;;4975136;28;20576;-83
2021/03/19 14:23:41;;;;;;;58.90;26.27;;;;;;;;;;4964794;28;20183;-83
2021/03/19 14:26:07;;;;;;;21.77;13.40;;;;;;;;;;4969375;28;20579;-83
2021/03/19 14:28:37;;;;;;;20.57;14.10;;;;;;;;;;4956592;29;20279;-83
2021/03/19 14:31:02;;;;;;;20.53;14.17;;;;;;;;;;4967585;28;20261;-83
2021/03/19 14:33:28;;;;;;;18.97;13.93;;;;;;;;;;4974420;28;20605;-82
2021/03/19 14:35:53;;;;;;;17.17;13.13;;;;;;;;;;4970679;28;20192;-83
2021/03/19 14:38:19;;;;;;;16.53;13.53;;;;;;;;;;4957088;28;20186;-84